sensor_id;sensor_type;location;lat;lon;timestamp;P1;durP1;ratioP1;P2;durP2;ratioP2
53367;SDS011;39271;45.618;20.024;2023-04-24T00:03:54;2.35;;;1.60;;
53367;SDS011;39271;45.618;20.024;2023-04-24T00:06:24;2.63;;;1.63;;
53367;SDS011;39271;45.618;20.024;2023-04-24T00:08:58;1.77;;;1.25;;
53367;SDS011;39271;45.618;20.024;2023-04-24T00:11:57;2.53;;;1.70;;
53367;SDS011;39271;45.618;20.024;2023-04-24T00:14:17;3.25;;;1.65;;
53367;SDS011;39271;45.618;20.024;2023-04-24T00:16:43;3.58;;;1.50;;
53367;SDS011;39271;45.618;20.024;2023-04-24T00:19:09;5.97;;;2.17;;
53367;SDS011;39271;45.618;20.024;2023-04-24T00:21:36;7.45;;;1.70;;
53367;SDS011;39271;45.618;20.024;2023-04-24T00:27:12;3.88;;;2.00;;
53367;SDS011;39271;45.618;20.024;2023-04-24T00:32:07;3.05;;;1.80;;
53367;SDS011;39271;45.618;20.024;2023-04-24T00:37:06;1.90;;;1.35;;
53367;SDS011;39271;45.618;20.024;2023-04-24T00:39:32;2.53;;;1.25;;
53367;SDS011;39271;45.618;20.024;2023-04-24T00:41:58;2.00;;;1.10;;
53367;SDS011;39271;45.618;20.024;2023-04-24T00:44:25;3.97;;;2.15;;
53367;SDS011;39271;45.618;20.024;2023-04-24T00:46:51;2.13;;;1.65;;
53367;SDS011;39271;45.618;20.024;2023-04-24T00:49:22;2.50;;;1.35;;
53367;SDS011;39271;45.618;20.024;2023-04-24T00:51:49;4.53;;;1.70;;
53367;SDS011;39271;45.618;20.024;2023-04-24T00:54:16;2.10;;;1.48;;
53367;SDS011;39271;45.618;20.024;2023-04-24T00:56:42;2.25;;;1.38;;
53367;SDS011;39271;45.618;20.024;2023-04-24T00:59:10;3.00;;;2.00;;
53367;SDS011;39271;45.618;20.024;2023-04-24T01:01:36;2.22;;;1.30;;
53367;SDS011;39271;45.618;20.024;2023-04-24T01:04:06;2.63;;;1.80;;
53367;SDS011;39271;45.618;20.024;2023-04-24T01:06:33;3.08;;;1.98;;
53367;SDS011;39271;45.618;20.024;2023-04-24T01:09:02;2.30;;;1.70;;
53367;SDS011;39271;45.618;20.024;2023-04-24T01:11:29;2.65;;;1.30;;
53367;SDS011;39271;45.618;20.024;2023-04-24T01:13:56;3.78;;;1.67;;
53367;SDS011;39271;45.618;20.024;2023-04-24T01:16:22;2.15;;;1.67;;
53367;SDS011;39271;45.618;20.024;2023-04-24T01:18:48;2.22;;;1.45;;
53367;SDS011;39271;45.618;20.024;2023-04-24T01:23:46;2.55;;;1.48;;
53367;SDS011;39271;45.618;20.024;2023-04-24T01:26:13;2.20;;;1.17;;
53367;SDS011;39271;45.618;20.024;2023-04-24T01:28:39;1.40;;;1.10;;
53367;SDS011;39271;45.618;20.024;2023-04-24T01:31:06;4.03;;;2.45;;
53367;SDS011;39271;45.618;20.024;2023-04-24T01:35:58;4.07;;;2.40;;
53367;SDS011;39271;45.618;20.024;2023-04-24T01:38:24;2.65;;;1.70;;
53367;SDS011;39271;45.618;20.024;2023-04-24T01:40:51;3.35;;;1.77;;
53367;SDS011;39271;45.618;20.024;2023-04-24T01:43:17;3.17;;;1.90;;
53367;SDS011;39271;45.618;20.024;2023-04-24T01:45:43;2.33;;;1.50;;
53367;SDS011;39271;45.618;20.024;2023-04-24T01:48:11;5.65;;;2.03;;
53367;SDS011;39271;45.618;20.024;2023-04-24T01:50:37;5.28;;;2.05;;
53367;SDS011;39271;45.618;20.024;2023-04-24T01:55:29;2.63;;;1.15;;
53367;SDS011;39271;45.618;20.024;2023-04-24T02:00:21;5.50;;;2.20;;
53367;SDS011;39271;45.618;20.024;2023-04-24T02:05:14;3.45;;;1.58;;
53367;SDS011;39271;45.618;20.024;2023-04-24T02:07:42;2.67;;;1.58;;
53367;SDS011;39271;45.618;20.024;2023-04-24T02:10:09;5.28;;;1.38;;
53367;SDS011;39271;45.618;20.024;2023-04-24T02:12:38;9.45;;;2.22;;
53367;SDS011;39271;45.618;20.024;2023-04-24T02:15:07;2.67;;;1.65;;
53367;SDS011;39271;45.618;20.024;2023-04-24T02:17:34;1.90;;;1.17;;
53367;SDS011;39271;45.618;20.024;2023-04-24T02:20:00;5.28;;;1.75;;
53367;SDS011;39271;45.618;20.024;2023-04-24T02:24:52;2.45;;;1.45;;
53367;SDS011;39271;45.618;20.024;2023-04-24T02:29:44;1.85;;;1.40;;
53367;SDS011;39271;45.618;20.024;2023-04-24T02:34:36;3.67;;;2.20;;
53367;SDS011;39271;45.618;20.024;2023-04-24T02:37:03;1.98;;;1.33;;
53367;SDS011;39271;45.618;20.024;2023-04-24T02:41:55;3.08;;;1.67;;
53367;SDS011;39271;45.618;20.024;2023-04-24T02:46:47;3.08;;;2.25;;
53367;SDS011;39271;45.618;20.024;2023-04-24T02:54:34;8.23;;;1.85;;
53367;SDS011;39271;45.618;20.024;2023-04-24T02:59:26;1.67;;;1.17;;
53367;SDS011;39271;45.618;20.024;2023-04-24T03:01:56;2.25;;;1.63;;
53367;SDS011;39271;45.618;20.024;2023-04-24T03:04:23;7.90;;;2.65;;
53367;SDS011;39271;45.618;20.024;2023-04-24T03:06:49;2.72;;;1.65;;
53367;SDS011;39271;45.618;20.024;2023-04-24T03:09:17;3.33;;;1.98;;
53367;SDS011;39271;45.618;20.024;2023-04-24T03:11:44;5.50;;;2.75;;
53367;SDS011;39271;45.618;20.024;2023-04-24T03:14:10;3.08;;;1.70;;
53367;SDS011;39271;45.618;20.024;2023-04-24T03:19:02;2.47;;;1.67;;
53367;SDS011;39271;45.618;20.024;2023-04-24T03:21:28;3.10;;;1.48;;
53367;SDS011;39271;45.618;20.024;2023-04-24T03:26:20;2.13;;;1.45;;
53367;SDS011;39271;45.618;20.024;2023-04-24T03:31:18;2.40;;;1.73;;
53367;SDS011;39271;45.618;20.024;2023-04-24T03:33:52;3.40;;;2.15;;
53367;SDS011;39271;45.618;20.024;2023-04-24T03:36:21;4.90;;;1.92;;
53367;SDS011;39271;45.618;20.024;2023-04-24T03:41:25;3.20;;;1.88;;
53367;SDS011;39271;45.618;20.024;2023-04-24T03:46:20;3.22;;;1.65;;
53367;SDS011;39271;45.618;20.024;2023-04-24T03:51:15;2.50;;;1.80;;
53367;SDS011;39271;45.618;20.024;2023-04-24T03:53:50;3.10;;;2.03;;
53367;SDS011;39271;45.618;20.024;2023-04-24T03:58:42;2.15;;;1.50;;
53367;SDS011;39271;45.618;20.024;2023-04-24T04:01:08;5.43;;;2.95;;
53367;SDS011;39271;45.618;20.024;2023-04-24T04:03:36;4.45;;;1.48;;
53367;SDS011;39271;45.618;20.024;2023-04-24T04:08:28;2.15;;;1.42;;
53367;SDS011;39271;45.618;20.024;2023-04-24T04:10:55;5.55;;;2.00;;
53367;SDS011;39271;45.618;20.024;2023-04-24T04:15:47;3.47;;;1.52;;
53367;SDS011;39271;45.618;20.024;2023-04-24T04:20:40;2.47;;;1.35;;
53367;SDS011;39271;45.618;20.024;2023-04-24T04:23:06;3.80;;;2.05;;
53367;SDS011;39271;45.618;20.024;2023-04-24T04:27:58;2.75;;;1.83;;
53367;SDS011;39271;45.618;20.024;2023-04-24T04:30:24;4.32;;;2.10;;
53367;SDS011;39271;45.618;20.024;2023-04-24T04:32:51;4.45;;;2.05;;
53367;SDS011;39271;45.618;20.024;2023-04-24T04:37:43;3.08;;;2.38;;
53367;SDS011;39271;45.618;20.024;2023-04-24T04:40:09;4.65;;;1.98;;
53367;SDS011;39271;45.618;20.024;2023-04-24T04:42:36;4.50;;;2.55;;
53367;SDS011;39271;45.618;20.024;2023-04-24T04:45:06;4.13;;;1.55;;
53367;SDS011;39271;45.618;20.024;2023-04-24T04:47:33;6.45;;;2.42;;
53367;SDS011;39271;45.618;20.024;2023-04-24T04:50:00;3.22;;;2.03;;
53367;SDS011;39271;45.618;20.024;2023-04-24T04:52:30;3.25;;;2.33;;
53367;SDS011;39271;45.618;20.024;2023-04-24T04:57:22;6.55;;;2.25;;
53367;SDS011;39271;45.618;20.024;2023-04-24T05:02:14;7.50;;;3.03;;
53367;SDS011;39271;45.618;20.024;2023-04-24T05:07:06;5.47;;;2.20;;
53367;SDS011;39271;45.618;20.024;2023-04-24T05:09:38;10.98;;;2.63;;
53367;SDS011;39271;45.618;20.024;2023-04-24T05:12:05;4.95;;;2.38;;
53367;SDS011;39271;45.618;20.024;2023-04-24T05:14:31;4.28;;;2.33;;
53367;SDS011;39271;45.618;20.024;2023-04-24T05:16:57;4.20;;;1.73;;
53367;SDS011;39271;45.618;20.024;2023-04-24T05:19:25;4.75;;;2.35;;
53367;SDS011;39271;45.618;20.024;2023-04-24T05:24:29;2.03;;;1.48;;
53367;SDS011;39271;45.618;20.024;2023-04-24T05:26:56;1.85;;;1.40;;
53367;SDS011;39271;45.618;20.024;2023-04-24T05:29:29;7.57;;;3.15;;
53367;SDS011;39271;45.618;20.024;2023-04-24T05:31:56;3.97;;;2.38;;
53367;SDS011;39271;45.618;20.024;2023-04-24T05:34:23;2.50;;;1.83;;
53367;SDS011;39271;45.618;20.024;2023-04-24T05:36:49;6.10;;;2.28;;
53367;SDS011;39271;45.618;20.024;2023-04-24T05:39:16;2.75;;;1.90;;
53367;SDS011;39271;45.618;20.024;2023-04-24T05:41:50;23.48;;;3.17;;
53367;SDS011;39271;45.618;20.024;2023-04-24T05:44:28;3.15;;;1.67;;
53367;SDS011;39271;45.618;20.024;2023-04-24T05:47:15;2.95;;;2.00;;
53367;SDS011;39271;45.618;20.024;2023-04-24T05:52:57;4.63;;;1.65;;
53367;SDS011;39271;45.618;20.024;2023-04-24T05:55:39;4.03;;;1.65;;
53367;SDS011;39271;45.618;20.024;2023-04-24T06:01:32;1.92;;;1.58;;
53367;SDS011;39271;45.618;20.024;2023-04-24T06:03:59;2.35;;;1.67;;
53367;SDS011;39271;45.618;20.024;2023-04-24T06:06:28;2.75;;;1.83;;
53367;SDS011;39271;45.618;20.024;2023-04-24T06:11:23;2.80;;;1.60;;
53367;SDS011;39271;45.618;20.024;2023-04-24T06:13:52;2.45;;;1.48;;
53367;SDS011;39271;45.618;20.024;2023-04-24T06:18:44;1.95;;;1.58;;
53367;SDS011;39271;45.618;20.024;2023-04-24T06:21:12;3.97;;;2.63;;
53367;SDS011;39271;45.618;20.024;2023-04-24T06:23:38;2.28;;;1.58;;
53367;SDS011;39271;45.618;20.024;2023-04-24T06:26:04;5.40;;;2.20;;
53367;SDS011;39271;45.618;20.024;2023-04-24T06:30:56;4.57;;;2.33;;
53367;SDS011;39271;45.618;20.024;2023-04-24T06:35:48;4.40;;;1.95;;
53367;SDS011;39271;45.618;20.024;2023-04-24T06:40:41;2.88;;;1.55;;
53367;SDS011;39271;45.618;20.024;2023-04-24T06:43:07;2.85;;;1.58;;
53367;SDS011;39271;45.618;20.024;2023-04-24T06:45:38;3.30;;;1.95;;
53367;SDS011;39271;45.618;20.024;2023-04-24T06:48:04;2.60;;;1.67;;
53367;SDS011;39271;45.618;20.024;2023-04-24T06:50:39;4.05;;;1.70;;
53367;SDS011;39271;45.618;20.024;2023-04-24T06:53:13;3.20;;;2.08;;
53367;SDS011;39271;45.618;20.024;2023-04-24T06:55:39;5.55;;;2.10;;
53367;SDS011;39271;45.618;20.024;2023-04-24T06:58:13;3.90;;;1.98;;
53367;SDS011;39271;45.618;20.024;2023-04-24T07:00:43;3.15;;;2.22;;
53367;SDS011;39271;45.618;20.024;2023-04-24T07:03:10;3.38;;;2.30;;
53367;SDS011;39271;45.618;20.024;2023-04-24T07:08:03;4.97;;;2.33;;
53367;SDS011;39271;45.618;20.024;2023-04-24T07:10:36;5.03;;;2.65;;
53367;SDS011;39271;45.618;20.024;2023-04-24T07:13:05;11.32;;;2.47;;
53367;SDS011;39271;45.618;20.024;2023-04-24T07:15:33;2.55;;;1.55;;
53367;SDS011;39271;45.618;20.024;2023-04-24T07:18:00;3.70;;;1.88;;
53367;SDS011;39271;45.618;20.024;2023-04-24T07:20:26;3.90;;;2.70;;
53367;SDS011;39271;45.618;20.024;2023-04-24T07:25:19;3.83;;;2.17;;
53367;SDS011;39271;45.618;20.024;2023-04-24T07:27:45;2.90;;;2.05;;
53367;SDS011;39271;45.618;20.024;2023-04-24T07:30:13;4.05;;;2.20;;
53367;SDS011;39271;45.618;20.024;2023-04-24T07:32:43;2.42;;;1.80;;
53367;SDS011;39271;45.618;20.024;2023-04-24T07:35:09;3.08;;;1.58;;
53367;SDS011;39271;45.618;20.024;2023-04-24T07:40:01;3.88;;;1.70;;
53367;SDS011;39271;45.618;20.024;2023-04-24T07:42:28;3.05;;;2.20;;
53367;SDS011;39271;45.618;20.024;2023-04-24T07:44:55;5.15;;;2.63;;
53367;SDS011;39271;45.618;20.024;2023-04-24T07:47:22;11.27;;;3.95;;
53367;SDS011;39271;45.618;20.024;2023-04-24T07:49:51;6.60;;;3.47;;
53367;SDS011;39271;45.618;20.024;2023-04-24T07:54:43;3.20;;;2.00;;
53367;SDS011;39271;45.618;20.024;2023-04-24T07:57:10;3.97;;;1.95;;
53367;SDS011;39271;45.618;20.024;2023-04-24T07:59:36;7.80;;;2.67;;
53367;SDS011;39271;45.618;20.024;2023-04-24T08:07:07;11.55;;;3.58;;
53367;SDS011;39271;45.618;20.024;2023-04-24T08:12:02;5.05;;;3.10;;
53367;SDS011;39271;45.618;20.024;2023-04-24T08:14:28;8.45;;;3.25;;
53367;SDS011;39271;45.618;20.024;2023-04-24T08:17:02;4.88;;;2.22;;
53367;SDS011;39271;45.618;20.024;2023-04-24T08:19:28;7.97;;;3.97;;
53367;SDS011;39271;45.618;20.024;2023-04-24T08:21:54;7.13;;;3.55;;
53367;SDS011;39271;45.618;20.024;2023-04-24T08:36:32;30.40;;;8.80;;
53367;SDS011;39271;45.618;20.024;2023-04-24T08:39:07;29.25;;;8.30;;
53367;SDS011;39271;45.618;20.024;2023-04-24T08:41:34;9.25;;;5.40;;
53367;SDS011;39271;45.618;20.024;2023-04-24T08:44:01;4.78;;;3.55;;
53367;SDS011;39271;45.618;20.024;2023-04-24T08:46:50;6.65;;;3.75;;
53367;SDS011;39271;45.618;20.024;2023-04-24T08:49:16;5.65;;;2.83;;
53367;SDS011;39271;45.618;20.024;2023-04-24T08:51:45;3.95;;;2.65;;
53367;SDS011;39271;45.618;20.024;2023-04-24T08:54:14;4.57;;;2.35;;
53367;SDS011;39271;45.618;20.024;2023-04-24T08:59:06;3.88;;;2.53;;
53367;SDS011;39271;45.618;20.024;2023-04-24T09:01:34;4.97;;;2.25;;
53367;SDS011;39271;45.618;20.024;2023-04-24T09:04:03;5.55;;;2.90;;
53367;SDS011;39271;45.618;20.024;2023-04-24T09:06:30;7.28;;;3.17;;
53367;SDS011;39271;45.618;20.024;2023-04-24T09:08:57;4.53;;;2.72;;
53367;SDS011;39271;45.618;20.024;2023-04-24T09:11:25;4.65;;;3.00;;
53367;SDS011;39271;45.618;20.024;2023-04-24T09:13:53;7.70;;;3.58;;
53367;SDS011;39271;45.618;20.024;2023-04-24T09:16:19;10.68;;;3.22;;
53367;SDS011;39271;45.618;20.024;2023-04-24T09:18:48;2.28;;;1.70;;
53367;SDS011;39271;45.618;20.024;2023-04-24T09:21:14;3.78;;;2.30;;
53367;SDS011;39271;45.618;20.024;2023-04-24T09:23:40;4.10;;;2.55;;
53367;SDS011;39271;45.618;20.024;2023-04-24T09:26:07;2.78;;;2.10;;
53367;SDS011;39271;45.618;20.024;2023-04-24T09:28:35;4.47;;;3.13;;
53367;SDS011;39271;45.618;20.024;2023-04-24T09:31:06;3.83;;;2.75;;
53367;SDS011;39271;45.618;20.024;2023-04-24T09:33:32;7.22;;;2.72;;
53367;SDS011;39271;45.618;20.024;2023-04-24T09:35:59;7.85;;;3.95;;
53367;SDS011;39271;45.618;20.024;2023-04-24T09:38:32;9.20;;;4.05;;
53367;SDS011;39271;45.618;20.024;2023-04-24T09:41:05;7.43;;;3.75;;
53367;SDS011;39271;45.618;20.024;2023-04-24T09:43:34;5.78;;;2.97;;
53367;SDS011;39271;45.618;20.024;2023-04-24T09:46:04;8.90;;;3.22;;
53367;SDS011;39271;45.618;20.024;2023-04-24T09:48:39;9.95;;;3.67;;
53367;SDS011;39271;45.618;20.024;2023-04-24T09:51:09;7.22;;;2.92;;
53367;SDS011;39271;45.618;20.024;2023-04-24T09:53:36;5.47;;;3.63;;
53367;SDS011;39271;45.618;20.024;2023-04-24T09:56:16;5.25;;;3.03;;
53367;SDS011;39271;45.618;20.024;2023-04-24T09:58:48;4.25;;;2.47;;
53367;SDS011;39271;45.618;20.024;2023-04-24T10:01:14;5.78;;;3.13;;
53367;SDS011;39271;45.618;20.024;2023-04-24T10:06:06;5.88;;;2.88;;
53367;SDS011;39271;45.618;20.024;2023-04-24T10:08:36;6.50;;;3.50;;
53367;SDS011;39271;45.618;20.024;2023-04-24T10:11:02;7.82;;;2.70;;
53367;SDS011;39271;45.618;20.024;2023-04-24T10:16:13;7.07;;;3.70;;
53367;SDS011;39271;45.618;20.024;2023-04-24T10:21:45;9.20;;;3.97;;
53367;SDS011;39271;45.618;20.024;2023-04-24T10:27:15;7.20;;;3.38;;
53367;SDS011;39271;45.618;20.024;2023-04-24T10:29:42;5.45;;;3.05;;
53367;SDS011;39271;45.618;20.024;2023-04-24T10:32:09;9.43;;;3.80;;
53367;SDS011;39271;45.618;20.024;2023-04-24T10:34:36;5.93;;;3.15;;
53367;SDS011;39271;45.618;20.024;2023-04-24T10:39:28;6.45;;;3.53;;
53367;SDS011;39271;45.618;20.024;2023-04-24T10:42:01;7.15;;;3.35;;
53367;SDS011;39271;45.618;20.024;2023-04-24T10:44:27;5.72;;;3.90;;
53367;SDS011;39271;45.618;20.024;2023-04-24T10:47:27;7.15;;;3.42;;
53367;SDS011;39271;45.618;20.024;2023-04-24T10:50:13;7.57;;;3.80;;
53367;SDS011;39271;45.618;20.024;2023-04-24T10:55:39;11.50;;;3.95;;
53367;SDS011;39271;45.618;20.024;2023-04-24T10:58:11;8.20;;;4.22;;
53367;SDS011;39271;45.618;20.024;2023-04-24T11:00:41;10.20;;;4.50;;
53367;SDS011;39271;45.618;20.024;2023-04-24T11:06:23;6.72;;;3.38;;
53367;SDS011;39271;45.618;20.024;2023-04-24T11:09:16;5.57;;;3.60;;
53367;SDS011;39271;45.618;20.024;2023-04-24T11:11:46;6.20;;;3.38;;
53367;SDS011;39271;45.618;20.024;2023-04-24T11:14:22;7.28;;;3.25;;
53367;SDS011;39271;45.618;20.024;2023-04-24T11:16:53;7.57;;;3.45;;
53367;SDS011;39271;45.618;20.024;2023-04-24T11:19:25;5.13;;;3.58;;
53367;SDS011;39271;45.618;20.024;2023-04-24T11:24:37;5.03;;;2.38;;
53367;SDS011;39271;45.618;20.024;2023-04-24T11:31:56;11.52;;;3.15;;
53367;SDS011;39271;45.618;20.024;2023-04-24T11:37:06;5.03;;;3.38;;
53367;SDS011;39271;45.618;20.024;2023-04-24T11:40:36;6.20;;;3.75;;
53367;SDS011;39271;45.618;20.024;2023-04-24T11:42:38;5.10;;;3.00;;
53367;SDS011;39271;45.618;20.024;2023-04-24T11:45:15;6.35;;;3.30;;
53367;SDS011;39271;45.618;20.024;2023-04-24T11:47:42;5.40;;;3.53;;
53367;SDS011;39271;45.618;20.024;2023-04-24T11:50:12;4.65;;;2.45;;
53367;SDS011;39271;45.618;20.024;2023-04-24T11:52:41;9.80;;;3.78;;
53367;SDS011;39271;45.618;20.024;2023-04-24T11:55:23;5.57;;;3.10;;
53367;SDS011;39271;45.618;20.024;2023-04-24T13:44:40;8.88;;;4.35;;
53367;SDS011;39271;45.618;20.024;2023-04-24T13:47:06;9.32;;;4.93;;
53367;SDS011;39271;45.618;20.024;2023-04-24T13:49:34;7.65;;;4.75;;
53367;SDS011;39271;45.618;20.024;2023-04-24T13:52:01;10.13;;;4.43;;
53367;SDS011;39271;45.618;20.024;2023-04-24T13:54:27;12.98;;;4.47;;
53367;SDS011;39271;45.618;20.024;2023-04-24T13:59:25;9.23;;;4.55;;
53367;SDS011;39271;45.618;20.024;2023-04-24T14:01:51;8.35;;;4.07;;
53367;SDS011;39271;45.618;20.024;2023-04-24T14:04:20;7.38;;;4.55;;
53367;SDS011;39271;45.618;20.024;2023-04-24T14:09:12;5.55;;;2.97;;
53367;SDS011;39271;45.618;20.024;2023-04-24T14:14:24;8.43;;;4.40;;
53367;SDS011;39271;45.618;20.024;2023-04-24T14:16:51;6.80;;;4.05;;
53367;SDS011;39271;45.618;20.024;2023-04-24T14:19:20;6.47;;;3.25;;
53367;SDS011;39271;45.618;20.024;2023-04-24T14:21:46;13.23;;;4.68;;
53367;SDS011;39271;45.618;20.024;2023-04-24T14:26:38;6.68;;;3.75;;
53367;SDS011;39271;45.618;20.024;2023-04-24T14:31:30;6.40;;;3.10;;
53367;SDS011;39271;45.618;20.024;2023-04-24T14:36:23;7.43;;;4.60;;
53367;SDS011;39271;45.618;20.024;2023-04-24T14:38:49;6.75;;;4.05;;
53367;SDS011;39271;45.618;20.024;2023-04-24T14:41:16;10.88;;;3.78;;
53367;SDS011;39271;45.618;20.024;2023-04-24T14:43:45;13.20;;;5.05;;
53367;SDS011;39271;45.618;20.024;2023-04-24T14:46:11;9.52;;;4.07;;
53367;SDS011;39271;45.618;20.024;2023-04-24T14:51:03;11.75;;;4.00;;
53367;SDS011;39271;45.618;20.024;2023-04-24T14:53:30;8.45;;;4.25;;
53367;SDS011;39271;45.618;20.024;2023-04-24T14:58:25;6.25;;;3.47;;
53367;SDS011;39271;45.618;20.024;2023-04-24T15:06:56;9.18;;;4.20;;
53367;SDS011;39271;45.618;20.024;2023-04-24T15:09:23;7.35;;;3.38;;
53367;SDS011;39271;45.618;20.024;2023-04-24T15:11:51;5.90;;;3.33;;
53367;SDS011;39271;45.618;20.024;2023-04-24T15:14:17;10.88;;;3.95;;
53367;SDS011;39271;45.618;20.024;2023-04-24T15:16:44;8.15;;;3.92;;
53367;SDS011;39271;45.618;20.024;2023-04-24T15:19:36;8.73;;;4.75;;
53367;SDS011;39271;45.618;20.024;2023-04-24T15:22:05;7.82;;;4.10;;
53367;SDS011;39271;45.618;20.024;2023-04-24T15:24:31;7.15;;;3.75;;
53367;SDS011;39271;45.618;20.024;2023-04-24T15:29:23;7.47;;;3.50;;
53367;SDS011;39271;45.618;20.024;2023-04-24T15:31:50;11.25;;;3.85;;
53367;SDS011;39271;45.618;20.024;2023-04-24T15:37:19;6.68;;;3.17;;
53367;SDS011;39271;45.618;20.024;2023-04-24T15:39:45;6.50;;;2.95;;
53367;SDS011;39271;45.618;20.024;2023-04-24T15:47:38;8.75;;;4.07;;
53367;SDS011;39271;45.618;20.024;2023-04-24T15:50:08;8.45;;;2.90;;
53367;SDS011;39271;45.618;20.024;2023-04-24T15:52:47;5.72;;;3.17;;
53367;SDS011;39271;45.618;20.024;2023-04-24T15:57:42;5.82;;;4.10;;
53367;SDS011;39271;45.618;20.024;2023-04-24T16:00:24;6.00;;;3.25;;
53367;SDS011;39271;45.618;20.024;2023-04-24T16:02:52;5.80;;;3.60;;
53367;SDS011;39271;45.618;20.024;2023-04-24T16:05:19;7.28;;;3.13;;
53367;SDS011;39271;45.618;20.024;2023-04-24T16:07:52;7.07;;;4.40;;
53367;SDS011;39271;45.618;20.024;2023-04-24T16:10:21;7.78;;;4.43;;
53367;SDS011;39271;45.618;20.024;2023-04-24T16:12:47;8.98;;;3.42;;
53367;SDS011;39271;45.618;20.024;2023-04-24T16:15:20;4.60;;;2.80;;
53367;SDS011;39271;45.618;20.024;2023-04-24T16:17:47;4.90;;;2.75;;
53367;SDS011;39271;45.618;20.024;2023-04-24T16:20:15;5.43;;;3.35;;
53367;SDS011;39271;45.618;20.024;2023-04-24T16:22:50;4.70;;;2.60;;
53367;SDS011;39271;45.618;20.024;2023-04-24T16:25:16;5.15;;;2.72;;
53367;SDS011;39271;45.618;20.024;2023-04-24T16:27:46;4.72;;;2.65;;
53367;SDS011;39271;45.618;20.024;2023-04-24T16:30:12;7.90;;;3.25;;
53367;SDS011;39271;45.618;20.024;2023-04-24T16:32:39;10.60;;;3.15;;
53367;SDS011;39271;45.618;20.024;2023-04-24T16:37:37;4.95;;;3.00;;
53367;SDS011;39271;45.618;20.024;2023-04-24T16:40:03;5.55;;;2.72;;
53367;SDS011;39271;45.618;20.024;2023-04-24T16:42:34;5.35;;;2.40;;
53367;SDS011;39271;45.618;20.024;2023-04-24T16:45:03;7.10;;;3.53;;
53367;SDS011;39271;45.618;20.024;2023-04-24T16:47:30;5.72;;;2.97;;
53367;SDS011;39271;45.618;20.024;2023-04-24T16:49:57;6.63;;;3.72;;
53367;SDS011;39271;45.618;20.024;2023-04-24T16:52:23;5.97;;;4.10;;
53367;SDS011;39271;45.618;20.024;2023-04-24T16:55:01;5.53;;;3.15;;
53367;SDS011;39271;45.618;20.024;2023-04-24T16:57:27;8.65;;;3.95;;
53367;SDS011;39271;45.618;20.024;2023-04-24T16:59:53;6.32;;;3.55;;
53367;SDS011;39271;45.618;20.024;2023-04-24T17:02:20;5.50;;;3.08;;
53367;SDS011;39271;45.618;20.024;2023-04-24T17:07:15;5.80;;;3.58;;
53367;SDS011;39271;45.618;20.024;2023-04-24T17:09:44;3.88;;;2.47;;
53367;SDS011;39271;45.618;20.024;2023-04-24T17:12:10;7.10;;;3.63;;
53367;SDS011;39271;45.618;20.024;2023-04-24T17:17:11;8.60;;;3.45;;
53367;SDS011;39271;45.618;20.024;2023-04-24T17:19:38;7.68;;;2.67;;
53367;SDS011;39271;45.618;20.024;2023-04-24T17:33:31;12.27;;;5.95;;
53367;SDS011;39271;45.618;20.024;2023-04-24T17:35:58;9.93;;;4.25;;
53367;SDS011;39271;45.618;20.024;2023-04-24T17:38:29;9.70;;;4.00;;
53367;SDS011;39271;45.618;20.024;2023-04-24T17:40:55;5.13;;;3.97;;
53367;SDS011;39271;45.618;20.024;2023-04-24T17:43:22;5.57;;;2.88;;
53367;SDS011;39271;45.618;20.024;2023-04-24T17:45:50;7.47;;;4.47;;
53367;SDS011;39271;45.618;20.024;2023-04-24T17:48:27;12.55;;;5.20;;
53367;SDS011;39271;45.618;20.024;2023-04-24T17:53:20;7.53;;;4.07;;
53367;SDS011;39271;45.618;20.024;2023-04-24T17:55:46;11.73;;;3.90;;
53367;SDS011;39271;45.618;20.024;2023-04-24T17:58:13;8.23;;;4.47;;
53367;SDS011;39271;45.618;20.024;2023-04-24T18:00:42;6.63;;;3.47;;
53367;SDS011;39271;45.618;20.024;2023-04-24T18:03:08;8.82;;;3.95;;
53367;SDS011;39271;45.618;20.024;2023-04-24T18:05:41;6.35;;;3.42;;
53367;SDS011;39271;45.618;20.024;2023-04-24T18:08:07;5.82;;;3.17;;
53367;SDS011;39271;45.618;20.024;2023-04-24T18:13:04;7.00;;;3.53;;
53367;SDS011;39271;45.618;20.024;2023-04-24T18:15:31;5.65;;;2.90;;
53367;SDS011;39271;45.618;20.024;2023-04-24T18:17:58;20.90;;;5.82;;
53367;SDS011;39271;45.618;20.024;2023-04-24T18:22:50;7.35;;;3.03;;
53367;SDS011;39271;45.618;20.024;2023-04-24T18:25:17;6.80;;;3.78;;
53367;SDS011;39271;45.618;20.024;2023-04-24T18:27:50;8.15;;;3.60;;
53367;SDS011;39271;45.618;20.024;2023-04-24T18:30:18;13.82;;;4.65;;
53367;SDS011;39271;45.618;20.024;2023-04-24T18:32:46;12.18;;;5.43;;
53367;SDS011;39271;45.618;20.024;2023-04-24T18:35:13;9.82;;;3.83;;
53367;SDS011;39271;45.618;20.024;2023-04-24T18:37:39;14.77;;;4.93;;
53367;SDS011;39271;45.618;20.024;2023-04-24T18:40:05;11.73;;;4.65;;
53367;SDS011;39271;45.618;20.024;2023-04-24T18:42:35;9.75;;;4.25;;
53367;SDS011;39271;45.618;20.024;2023-04-24T18:45:01;9.32;;;3.83;;
53367;SDS011;39271;45.618;20.024;2023-04-24T18:47:30;12.23;;;4.82;;
53367;SDS011;39271;45.618;20.024;2023-04-24T18:49:56;12.57;;;4.30;;
53367;SDS011;39271;45.618;20.024;2023-04-24T18:52:22;6.22;;;3.97;;
53367;SDS011;39271;45.618;20.024;2023-04-24T18:54:49;5.95;;;3.70;;
53367;SDS011;39271;45.618;20.024;2023-04-24T18:57:15;7.03;;;3.45;;
53367;SDS011;39271;45.618;20.024;2023-04-24T19:02:08;5.93;;;3.28;;
53367;SDS011;39271;45.618;20.024;2023-04-24T19:04:38;5.03;;;2.75;;
53367;SDS011;39271;45.618;20.024;2023-04-24T19:07:08;4.55;;;3.15;;
53367;SDS011;39271;45.618;20.024;2023-04-24T19:09:34;13.10;;;4.32;;
53367;SDS011;39271;45.618;20.024;2023-04-24T19:14:26;5.73;;;3.70;;
53367;SDS011;39271;45.618;20.024;2023-04-24T19:19:18;7.20;;;3.20;;
53367;SDS011;39271;45.618;20.024;2023-04-24T19:21:45;13.23;;;3.75;;
53367;SDS011;39271;45.618;20.024;2023-04-24T19:26:45;5.57;;;3.03;;
53367;SDS011;39271;45.618;20.024;2023-04-24T19:29:11;4.82;;;2.67;;
53367;SDS011;39271;45.618;20.024;2023-04-24T19:31:40;15.10;;;3.40;;
53367;SDS011;39271;45.618;20.024;2023-04-24T19:34:06;7.35;;;3.92;;
53367;SDS011;39271;45.618;20.024;2023-04-24T19:39:02;7.43;;;3.33;;
53367;SDS011;39271;45.618;20.024;2023-04-24T19:41:28;7.22;;;2.55;;
53367;SDS011;39271;45.618;20.024;2023-04-24T19:46:58;3.55;;;2.22;;
53367;SDS011;39271;45.618;20.024;2023-04-24T19:51:53;5.00;;;2.53;;
53367;SDS011;39271;45.618;20.024;2023-04-24T19:57:23;9.98;;;3.38;;
53367;SDS011;39271;45.618;20.024;2023-04-24T20:02:15;9.23;;;3.72;;
53367;SDS011;39271;45.618;20.024;2023-04-24T20:07:07;3.15;;;2.33;;
53367;SDS011;39271;45.618;20.024;2023-04-24T20:11:59;17.35;;;3.40;;
53367;SDS011;39271;45.618;20.024;2023-04-24T20:16:51;7.63;;;4.70;;
53367;SDS011;39271;45.618;20.024;2023-04-24T20:19:18;7.88;;;3.97;;
53367;SDS011;39271;45.618;20.024;2023-04-24T20:21:44;4.40;;;2.58;;
53367;SDS011;39271;45.618;20.024;2023-04-24T20:26:45;5.15;;;3.22;;
53367;SDS011;39271;45.618;20.024;2023-04-24T20:31:40;7.55;;;3.28;;
53367;SDS011;39271;45.618;20.024;2023-04-24T20:36:32;5.07;;;2.83;;
53367;SDS011;39271;45.618;20.024;2023-04-24T20:38:58;8.18;;;3.65;;
53367;SDS011;39271;45.618;20.024;2023-04-24T20:41:28;15.80;;;5.30;;
53367;SDS011;39271;45.618;20.024;2023-04-24T20:43:54;9.98;;;4.72;;
53367;SDS011;39271;45.618;20.024;2023-04-24T20:48:46;9.60;;;4.45;;
53367;SDS011;39271;45.618;20.024;2023-04-24T20:51:12;6.35;;;3.75;;
53367;SDS011;39271;45.618;20.024;2023-04-24T20:56:05;5.53;;;3.13;;
53367;SDS011;39271;45.618;20.024;2023-04-24T20:58:32;6.50;;;3.55;;